sensor_id;sensor_type;location;lat;lon;timestamp;temperature;humidity
52211;DHT22;38179;52.756;6.906;2023-08-24T00:01:16;17.60;99.90
52211;DHT22;38179;52.756;6.906;2023-08-24T00:03:45;17.60;99.90
52211;DHT22;38179;52.756;6.906;2023-08-24T00:06:11;17.60;99.90
52211;DHT22;38179;52.756;6.906;2023-08-24T00:08:37;17.60;99.90
52211;DHT22;38179;52.756;6.906;2023-08-24T00:11:03;17.60;99.90
52211;DHT22;38179;52.756;6.906;2023-08-24T00:13:30;17.60;99.90
52211;DHT22;38179;52.756;6.906;2023-08-24T00:15:56;17.60;99.90
52211;DHT22;38179;52.756;6.906;2023-08-24T00:18:21;17.60;99.90
52211;DHT22;38179;52.756;6.906;2023-08-24T00:20:48;17.50;99.90
52211;DHT22;38179;52.756;6.906;2023-08-24T00:23:15;17.50;99.90
52211;DHT22;38179;52.756;6.906;2023-08-24T00:25:41;17.50;99.90
52211;DHT22;38179;52.756;6.906;2023-08-24T00:28:07;17.60;99.90
52211;DHT22;38179;52.756;6.906;2023-08-24T00:30:33;17.60;99.90
52211;DHT22;38179;52.756;6.906;2023-08-24T00:32:59;17.50;99.90
52211;DHT22;38179;52.756;6.906;2023-08-24T00:35:25;17.40;99.90
52211;DHT22;38179;52.756;6.906;2023-08-24T00:37:51;17.50;99.90
52211;DHT22;38179;52.756;6.906;2023-08-24T00:40:17;17.50;99.90
52211;DHT22;38179;52.756;6.906;2023-08-24T00:42:44;17.40;99.90
52211;DHT22;38179;52.756;6.906;2023-08-24T00:45:12;17.40;99.90
52211;DHT22;38179;52.756;6.906;2023-08-24T00:47:41;17.40;99.90
52211;DHT22;38179;52.756;6.906;2023-08-24T00:50:08;17.40;99.90
52211;DHT22;38179;52.756;6.906;2023-08-24T00:52:37;17.40;99.90
52211;DHT22;38179;52.756;6.906;2023-08-24T00:55:05;17.30;99.90
52211;DHT22;38179;52.756;6.906;2023-08-24T00:57:32;17.30;99.90
52211;DHT22;38179;52.756;6.906;2023-08-24T01:00:03;17.30;99.90
52211;DHT22;38179;52.756;6.906;2023-08-24T01:02:32;17.20;99.90
52211;DHT22;38179;52.756;6.906;2023-08-24T01:04:58;17.20;99.90
52211;DHT22;38179;52.756;6.906;2023-08-24T01:07:25;17.20;99.90
52211;DHT22;38179;52.756;6.906;2023-08-24T01:09:51;17.20;99.90
52211;DHT22;38179;52.756;6.906;2023-08-24T01:12:28;17.20;99.90
52211;DHT22;38179;52.756;6.906;2023-08-24T01:17:27;17.20;99.90
52211;DHT22;38179;52.756;6.906;2023-08-24T01:19:55;17.20;99.90
52211;DHT22;38179;52.756;6.906;2023-08-24T01:25:14;17.10;99.90
52211;DHT22;38179;52.756;6.906;2023-08-24T01:27:41;17.10;99.90
52211;DHT22;38179;52.756;6.906;2023-08-24T01:30:08;17.20;99.90
52211;DHT22;38179;52.756;6.906;2023-08-24T01:32:35;17.20;99.90
52211;DHT22;38179;52.756;6.906;2023-08-24T01:35:05;17.20;99.90
52211;DHT22;38179;52.756;6.906;2023-08-24T01:37:33;17.20;99.90
52211;DHT22;38179;52.756;6.906;2023-08-24T01:40:13;17.20;99.90
52211;DHT22;38179;52.756;6.906;2023-08-24T01:42:56;17.30;99.90
52211;DHT22;38179;52.756;6.906;2023-08-24T01:45:27;17.20;99.90
52211;DHT22;38179;52.756;6.906;2023-08-24T01:47:55;17.30;99.90
52211;DHT22;38179;52.756;6.906;2023-08-24T01:50:22;17.20;99.90
52211;DHT22;38179;52.756;6.906;2023-08-24T01:52:49;17.30;99.90
52211;DHT22;38179;52.756;6.906;2023-08-24T01:55:18;17.30;99.90
52211;DHT22;38179;52.756;6.906;2023-08-24T01:57:44;17.30;99.90
52211;DHT22;38179;52.756;6.906;2023-08-24T02:00:10;17.30;99.90
52211;DHT22;38179;52.756;6.906;2023-08-24T02:02:37;17.30;99.90
52211;DHT22;38179;52.756;6.906;2023-08-24T02:05:04;17.30;99.90
52211;DHT22;38179;52.756;6.906;2023-08-24T02:07:30;17.30;99.90
52211;DHT22;38179;52.756;6.906;2023-08-24T02:09:56;17.30;99.90
52211;DHT22;38179;52.756;6.906;2023-08-24T02:12:22;17.30;99.90
52211;DHT22;38179;52.756;6.906;2023-08-24T02:14:48;17.30;99.90
52211;DHT22;38179;52.756;6.906;2023-08-24T02:17:14;17.30;99.90
52211;DHT22;38179;52.756;6.906;2023-08-24T02:19:40;17.30;99.90
52211;DHT22;38179;52.756;6.906;2023-08-24T02:22:07;17.30;99.90
52211;DHT22;38179;52.756;6.906;2023-08-24T02:24:33;17.30;99.90
52211;DHT22;38179;52.756;6.906;2023-08-24T02:27:00;17.30;99.90
52211;DHT22;38179;52.756;6.906;2023-08-24T02:29:26;17.30;99.90
52211;DHT22;38179;52.756;6.906;2023-08-24T02:31:52;17.30;99.90
52211;DHT22;38179;52.756;6.906;2023-08-24T02:34:18;17.30;99.90
52211;DHT22;38179;52.756;6.906;2023-08-24T02:36:44;17.30;99.90
52211;DHT22;38179;52.756;6.906;2023-08-24T02:41:54;17.40;99.90
52211;DHT22;38179;52.756;6.906;2023-08-24T02:44:20;17.30;99.90
52211;DHT22;38179;52.756;6.906;2023-08-24T02:46:48;17.30;99.90
52211;DHT22;38179;52.756;6.906;2023-08-24T02:49:14;17.30;99.90
52211;DHT22;38179;52.756;6.906;2023-08-24T02:51:40;17.30;99.90
52211;DHT22;38179;52.756;6.906;2023-08-24T02:54:06;17.30;99.90
52211;DHT22;38179;52.756;6.906;2023-08-24T02:56:32;17.30;99.90
52211;DHT22;38179;52.756;6.906;2023-08-24T02:58:58;17.20;99.90
52211;DHT22;38179;52.756;6.906;2023-08-24T03:01:24;17.30;99.90
52211;DHT22;38179;52.756;6.906;2023-08-24T03:03:50;17.20;99.90
52211;DHT22;38179;52.756;6.906;2023-08-24T03:06:16;17.20;99.90
52211;DHT22;38179;52.756;6.906;2023-08-24T03:08:42;17.20;99.90
52211;DHT22;38179;52.756;6.906;2023-08-24T03:13:50;17.20;99.90
52211;DHT22;38179;52.756;6.906;2023-08-24T03:16:16;17.20;99.90
52211;DHT22;38179;52.756;6.906;2023-08-24T03:18:42;17.20;99.90
52211;DHT22;38179;52.756;6.906;2023-08-24T03:21:08;17.20;99.90
52211;DHT22;38179;52.756;6.906;2023-08-24T03:23:35;17.20;99.90
52211;DHT22;38179;52.756;6.906;2023-08-24T03:26:01;17.10;99.90
52211;DHT22;38179;52.756;6.906;2023-08-24T03:28:27;17.10;99.90
52211;DHT22;38179;52.756;6.906;2023-08-24T03:30:53;17.10;99.90
52211;DHT22;38179;52.756;6.906;2023-08-24T03:33:21;17.10;99.90
52211;DHT22;38179;52.756;6.906;2023-08-24T03:35:47;17.00;99.90
52211;DHT22;38179;52.756;6.906;2023-08-24T03:38:13;17.00;99.90
52211;DHT22;38179;52.756;6.906;2023-08-24T03:40:39;17.00;99.90
52211;DHT22;38179;52.756;6.906;2023-08-24T03:43:05;17.00;99.90
52211;DHT22;38179;52.756;6.906;2023-08-24T03:45:31;16.90;99.90
52211;DHT22;38179;52.756;6.906;2023-08-24T03:47:57;16.90;99.90
52211;DHT22;38179;52.756;6.906;2023-08-24T03:50:23;16.90;99.90
52211;DHT22;38179;52.756;6.906;2023-08-24T03:52:50;16.90;99.90
52211;DHT22;38179;52.756;6.906;2023-08-24T03:55:16;16.90;99.90
52211;DHT22;38179;52.756;6.906;2023-08-24T03:57:42;16.90;99.90
52211;DHT22;38179;52.756;6.906;2023-08-24T04:00:08;16.90;99.90
52211;DHT22;38179;52.756;6.906;2023-08-24T04:02:41;16.90;99.90
52211;DHT22;38179;52.756;6.906;2023-08-24T04:05:07;16.90;99.90
52211;DHT22;38179;52.756;6.906;2023-08-24T04:07:33;16.80;99.90
52211;DHT22;38179;52.756;6.906;2023-08-24T04:10:03;16.70;99.90
52211;DHT22;38179;52.756;6.906;2023-08-24T04:12:31;16.70;99.90
52211;DHT22;38179;52.756;6.906;2023-08-24T04:14:57;16.60;99.90
52211;DHT22;38179;52.756;6.906;2023-08-24T04:17:24;16.60;99.90
52211;DHT22;38179;52.756;6.906;2023-08-24T04:19:50;16.50;99.90
52211;DHT22;38179;52.756;6.906;2023-08-24T04:22:16;16.50;99.90
52211;DHT22;38179;52.756;6.906;2023-08-24T04:24:41;16.50;99.90
52211;DHT22;38179;52.756;6.906;2023-08-24T04:27:07;16.50;99.90
52211;DHT22;38179;52.756;6.906;2023-08-24T04:29:34;16.50;99.90
52211;DHT22;38179;52.756;6.906;2023-08-24T04:31:59;16.50;99.90
52211;DHT22;38179;52.756;6.906;2023-08-24T04:34:25;16.50;99.90
52211;DHT22;38179;52.756;6.906;2023-08-24T04:36:52;16.50;99.90
52211;DHT22;38179;52.756;6.906;2023-08-24T04:39:18;16.50;99.90
52211;DHT22;38179;52.756;6.906;2023-08-24T04:41:46;16.50;99.90
52211;DHT22;38179;52.756;6.906;2023-08-24T04:44:12;16.50;99.90
52211;DHT22;38179;52.756;6.906;2023-08-24T04:46:38;16.50;99.90
52211;DHT22;38179;52.756;6.906;2023-08-24T04:49:05;16.50;99.90
52211;DHT22;38179;52.756;6.906;2023-08-24T04:51:32;16.40;99.90
52211;DHT22;38179;52.756;6.906;2023-08-24T04:53:58;16.50;99.90
52211;DHT22;38179;52.756;6.906;2023-08-24T04:56:24;16.50;99.90
52211;DHT22;38179;52.756;6.906;2023-08-24T04:58:56;16.50;99.90
52211;DHT22;38179;52.756;6.906;2023-08-24T05:01:26;16.40;99.90
52211;DHT22;38179;52.756;6.906;2023-08-24T05:03:53;16.40;99.90
52211;DHT22;38179;52.756;6.906;2023-08-24T05:06:19;16.40;99.90
52211;DHT22;38179;52.756;6.906;2023-08-24T05:08:46;16.40;99.90
52211;DHT22;38179;52.756;6.906;2023-08-24T05:11:13;16.40;99.90
52211;DHT22;38179;52.756;6.906;2023-08-24T05:13:40;16.30;99.90
52211;DHT22;38179;52.756;6.906;2023-08-24T05:16:06;16.40;99.90
52211;DHT22;38179;52.756;6.906;2023-08-24T05:18:34;16.40;99.90
52211;DHT22;38179;52.756;6.906;2023-08-24T05:21:00;16.40;99.90
52211;DHT22;38179;52.756;6.906;2023-08-24T05:23:26;16.40;99.90
52211;DHT22;38179;52.756;6.906;2023-08-24T05:25:52;16.40;99.90
52211;DHT22;38179;52.756;6.906;2023-08-24T05:28:18;16.40;99.90
52211;DHT22;38179;52.756;6.906;2023-08-24T05:30:44;16.50;99.90
52211;DHT22;38179;52.756;6.906;2023-08-24T05:33:10;16.50;99.90
52211;DHT22;38179;52.756;6.906;2023-08-24T05:35:36;16.50;99.90
52211;DHT22;38179;52.756;6.906;2023-08-24T05:38:01;16.50;99.90
52211;DHT22;38179;52.756;6.906;2023-08-24T05:40:27;16.50;99.90
52211;DHT22;38179;52.756;6.906;2023-08-24T05:42:53;16.50;99.90
52211;DHT22;38179;52.756;6.906;2023-08-24T05:45:19;16.50;99.90
52211;DHT22;38179;52.756;6.906;2023-08-24T05:47:45;16.60;99.90
52211;DHT22;38179;52.756;6.906;2023-08-24T05:50:11;16.60;99.90
52211;DHT22;38179;52.756;6.906;2023-08-24T05:52:39;16.60;99.90
52211;DHT22;38179;52.756;6.906;2023-08-24T05:55:06;16.60;99.90
52211;DHT22;38179;52.756;6.906;2023-08-24T05:57:33;16.60;99.90
52211;DHT22;38179;52.756;6.906;2023-08-24T06:00:04;16.70;99.90
52211;DHT22;38179;52.756;6.906;2023-08-24T06:02:39;16.70;99.90
52211;DHT22;38179;52.756;6.906;2023-08-24T06:05:06;16.70;99.90
52211;DHT22;38179;52.756;6.906;2023-08-24T06:07:33;16.80;99.90
52211;DHT22;38179;52.756;6.906;2023-08-24T06:09:59;16.80;99.90
52211;DHT22;38179;52.756;6.906;2023-08-24T06:12:25;16.80;99.90
52211;DHT22;38179;52.756;6.906;2023-08-24T06:14:51;16.90;99.90
52211;DHT22;38179;52.756;6.906;2023-08-24T06:17:17;16.90;99.90
52211;DHT22;38179;52.756;6.906;2023-08-24T06:19:43;16.90;99.90
52211;DHT22;38179;52.756;6.906;2023-08-24T06:22:09;17.00;99.90
52211;DHT22;38179;52.756;6.906;2023-08-24T06:24:35;17.00;99.90
52211;DHT22;38179;52.756;6.906;2023-08-24T06:27:01;17.10;99.90
52211;DHT22;38179;52.756;6.906;2023-08-24T06:29:29;17.10;99.90
52211;DHT22;38179;52.756;6.906;2023-08-24T06:31:55;17.20;99.90
52211;DHT22;38179;52.756;6.906;2023-08-24T06:34:21;17.20;99.90
52211;DHT22;38179;52.756;6.906;2023-08-24T06:36:47;17.30;99.90
52211;DHT22;38179;52.756;6.906;2023-08-24T06:39:13;17.40;99.90
52211;DHT22;38179;52.756;6.906;2023-08-24T06:41:39;17.40;99.90
52211;DHT22;38179;52.756;6.906;2023-08-24T06:44:05;17.40;99.90
52211;DHT22;38179;52.756;6.906;2023-08-24T06:46:31;17.50;99.90
52211;DHT22;38179;52.756;6.906;2023-08-24T06:48:57;17.50;99.90
52211;DHT22;38179;52.756;6.906;2023-08-24T06:51:24;17.60;99.90
52211;DHT22;38179;52.756;6.906;2023-08-24T06:53:50;17.60;99.90
52211;DHT22;38179;52.756;6.906;2023-08-24T06:56:16;17.70;99.90
52211;DHT22;38179;52.756;6.906;2023-08-24T06:58:43;17.70;99.90
52211;DHT22;38179;52.756;6.906;2023-08-24T07:01:09;17.70;99.90
52211;DHT22;38179;52.756;6.906;2023-08-24T07:03:37;17.70;99.90
52211;DHT22;38179;52.756;6.906;2023-08-24T07:06:04;17.80;99.90
52211;DHT22;38179;52.756;6.906;2023-08-24T07:08:30;17.80;99.90
52211;DHT22;38179;52.756;6.906;2023-08-24T07:10:56;17.80;99.90
52211;DHT22;38179;52.756;6.906;2023-08-24T07:13:22;17.90;99.90
52211;DHT22;38179;52.756;6.906;2023-08-24T07:15:48;17.90;99.90
52211;DHT22;38179;52.756;6.906;2023-08-24T07:18:15;18.00;99.90
52211;DHT22;38179;52.756;6.906;2023-08-24T07:20:41;18.00;99.90
52211;DHT22;38179;52.756;6.906;2023-08-24T07:23:07;18.10;99.90
52211;DHT22;38179;52.756;6.906;2023-08-24T07:25:33;18.10;99.90
52211;DHT22;38179;52.756;6.906;2023-08-24T07:27:58;18.10;99.90
52211;DHT22;38179;52.756;6.906;2023-08-24T07:30:31;18.10;99.90
52211;DHT22;38179;52.756;6.906;2023-08-24T07:32:57;18.20;99.90
52211;DHT22;38179;52.756;6.906;2023-08-24T07:35:23;18.20;99.90
52211;DHT22;38179;52.756;6.906;2023-08-24T07:37:52;18.20;99.90
52211;DHT22;38179;52.756;6.906;2023-08-24T07:40:18;18.20;99.90
52211;DHT22;38179;52.756;6.906;2023-08-24T07:42:49;18.30;99.90
52211;DHT22;38179;52.756;6.906;2023-08-24T07:45:22;18.30;99.90
52211;DHT22;38179;52.756;6.906;2023-08-24T07:47:51;18.40;99.90
52211;DHT22;38179;52.756;6.906;2023-08-24T07:50:17;18.40;99.90
52211;DHT22;38179;52.756;6.906;2023-08-24T07:52:43;18.50;99.90
52211;DHT22;38179;52.756;6.906;2023-08-24T07:55:10;18.60;99.90
52211;DHT22;38179;52.756;6.906;2023-08-24T07:57:37;18.60;99.90
52211;DHT22;38179;52.756;6.906;2023-08-24T08:00:06;18.60;99.90
52211;DHT22;38179;52.756;6.906;2023-08-24T08:02:33;18.70;99.90
52211;DHT22;38179;52.756;6.906;2023-08-24T08:04:59;18.80;99.90
52211;DHT22;38179;52.756;6.906;2023-08-24T08:07:26;18.80;99.90
52211;DHT22;38179;52.756;6.906;2023-08-24T08:09:52;18.90;99.90
52211;DHT22;38179;52.756;6.906;2023-08-24T08:12:18;19.20;99.90
52211;DHT22;38179;52.756;6.906;2023-08-24T08:14:44;19.00;99.90
52211;DHT22;38179;52.756;6.906;2023-08-24T08:17:10;19.00;99.90
52211;DHT22;38179;52.756;6.906;2023-08-24T08:19:36;19.10;99.90
52211;DHT22;38179;52.756;6.906;2023-08-24T08:22:04;19.20;99.90
52211;DHT22;38179;52.756;6.906;2023-08-24T08:24:32;19.30;99.90
52211;DHT22;38179;52.756;6.906;2023-08-24T08:26:57;19.30;99.90
52211;DHT22;38179;52.756;6.906;2023-08-24T08:29:23;19.30;99.90
52211;DHT22;38179;52.756;6.906;2023-08-24T08:31:50;19.40;99.90
52211;DHT22;38179;52.756;6.906;2023-08-24T08:34:15;19.50;99.90
52211;DHT22;38179;52.756;6.906;2023-08-24T08:36:41;19.50;99.90
52211;DHT22;38179;52.756;6.906;2023-08-24T08:39:07;19.60;99.90
52211;DHT22;38179;52.756;6.906;2023-08-24T08:41:38;19.60;99.90
52211;DHT22;38179;52.756;6.906;2023-08-24T08:44:06;19.60;99.90
52211;DHT22;38179;52.756;6.906;2023-08-24T08:46:32;19.80;99.90
52211;DHT22;38179;52.756;6.906;2023-08-24T08:49:00;19.90;99.90
52211;DHT22;38179;52.756;6.906;2023-08-24T08:51:27;19.90;99.90
52211;DHT22;38179;52.756;6.906;2023-08-24T08:53:53;20.00;99.90
52211;DHT22;38179;52.756;6.906;2023-08-24T08:56:20;20.10;99.90
52211;DHT22;38179;52.756;6.906;2023-08-24T08:58:47;20.10;99.90
52211;DHT22;38179;52.756;6.906;2023-08-24T09:01:14;20.10;99.90
52211;DHT22;38179;52.756;6.906;2023-08-24T09:03:41;20.20;99.90
52211;DHT22;38179;52.756;6.906;2023-08-24T09:06:09;20.20;99.90
52211;DHT22;38179;52.756;6.906;2023-08-24T09:08:35;20.30;99.90
52211;DHT22;38179;52.756;6.906;2023-08-24T09:11:01;20.40;99.90
52211;DHT22;38179;52.756;6.906;2023-08-24T09:13:29;20.40;99.90
52211;DHT22;38179;52.756;6.906;2023-08-24T09:16:03;20.60;99.90
52211;DHT22;38179;52.756;6.906;2023-08-24T09:18:37;20.60;99.90
52211;DHT22;38179;52.756;6.906;2023-08-24T09:21:10;20.70;99.90
52211;DHT22;38179;52.756;6.906;2023-08-24T09:23:38;20.80;99.90
52211;DHT22;38179;52.756;6.906;2023-08-24T09:26:08;20.90;99.90
52211;DHT22;38179;52.756;6.906;2023-08-24T09:28:34;20.90;99.90
52211;DHT22;38179;52.756;6.906;2023-08-24T09:31:02;21.10;99.90
52211;DHT22;38179;52.756;6.906;2023-08-24T09:33:29;21.10;99.90
52211;DHT22;38179;52.756;6.906;2023-08-24T09:35:55;21.20;99.90
52211;DHT22;38179;52.756;6.906;2023-08-24T09:38:27;21.20;99.90
52211;DHT22;38179;52.756;6.906;2023-08-24T09:40:54;21.30;99.90
52211;DHT22;38179;52.756;6.906;2023-08-24T09:43:21;21.40;99.90
52211;DHT22;38179;52.756;6.906;2023-08-24T09:45:55;21.50;99.90
52211;DHT22;38179;52.756;6.906;2023-08-24T09:48:22;21.60;99.90
52211;DHT22;38179;52.756;6.906;2023-08-24T09:50:51;21.70;99.90
52211;DHT22;38179;52.756;6.906;2023-08-24T09:53:21;21.80;99.90
52211;DHT22;38179;52.756;6.906;2023-08-24T09:55:54;21.80;99.90
52211;DHT22;38179;52.756;6.906;2023-08-24T09:58:24;21.90;99.90
52211;DHT22;38179;52.756;6.906;2023-08-24T10:00:51;21.90;99.90
52211;DHT22;38179;52.756;6.906;2023-08-24T10:03:24;22.00;99.90
52211;DHT22;38179;52.756;6.906;2023-08-24T10:05:57;22.00;99.90
52211;DHT22;38179;52.756;6.906;2023-08-24T10:08:35;22.00;99.90
52211;DHT22;38179;52.756;6.906;2023-08-24T10:11:10;22.10;99.90
52211;DHT22;38179;52.756;6.906;2023-08-24T10:13:44;22.10;99.90
52211;DHT22;38179;52.756;6.906;2023-08-24T10:16:12;22.10;99.90
52211;DHT22;38179;52.756;6.906;2023-08-24T10:18:40;22.10;99.90
52211;DHT22;38179;52.756;6.906;2023-08-24T10:21:07;22.10;99.90
52211;DHT22;38179;52.756;6.906;2023-08-24T10:23:34;22.00;99.90
52211;DHT22;38179;52.756;6.906;2023-08-24T10:26:07;22.00;99.90
52211;DHT22;38179;52.756;6.906;2023-08-24T10:28:33;22.10;99.90
52211;DHT22;38179;52.756;6.906;2023-08-24T10:31:01;22.10;99.90
52211;DHT22;38179;52.756;6.906;2023-08-24T10:33:29;22.10;99.90
52211;DHT22;38179;52.756;6.906;2023-08-24T10:35:56;22.10;99.90
52211;DHT22;38179;52.756;6.906;2023-08-24T10:38:27;22.10;99.90
52211;DHT22;38179;52.756;6.906;2023-08-24T10:40:53;22.00;99.90
52211;DHT22;38179;52.756;6.906;2023-08-24T10:43:20;22.10;99.90
52211;DHT22;38179;52.756;6.906;2023-08-24T10:46:00;22.10;99.90
52211;DHT22;38179;52.756;6.906;2023-08-24T10:48:28;22.10;99.90
52211;DHT22;38179;52.756;6.906;2023-08-24T10:51:22;22.10;99.90
52211;DHT22;38179;52.756;6.906;2023-08-24T10:54:01;22.10;99.90
52211;DHT22;38179;52.756;6.906;2023-08-24T10:59:16;22.10;99.90
52211;DHT22;38179;52.756;6.906;2023-08-24T11:02:02;22.10;99.90
52211;DHT22;38179;52.756;6.906;2023-08-24T11:04:29;22.20;99.90
52211;DHT22;38179;52.756;6.906;2023-08-24T11:06:59;22.20;99.90
52211;DHT22;38179;52.756;6.906;2023-08-24T11:09:45;22.20;99.90
52211;DHT22;38179;52.756;6.906;2023-08-24T11:14:51;22.40;99.90
52211;DHT22;38179;52.756;6.906;2023-08-24T11:17:24;22.40;99.90
52211;DHT22;38179;52.756;6.906;2023-08-24T11:19:55;22.50;99.90
52211;DHT22;38179;52.756;6.906;2023-08-24T11:22:21;22.60;99.90
52211;DHT22;38179;52.756;6.906;2023-08-24T11:24:50;22.70;99.90
52211;DHT22;38179;52.756;6.906;2023-08-24T11:27:16;22.80;99.90
52211;DHT22;38179;52.756;6.906;2023-08-24T11:29:44;22.80;99.90
52211;DHT22;38179;52.756;6.906;2023-08-24T11:32:10;22.80;99.90
52211;DHT22;38179;52.756;6.906;2023-08-24T11:34:36;22.90;99.90
52211;DHT22;38179;52.756;6.906;2023-08-24T11:37:03;22.90;99.90
52211;DHT22;38179;52.756;6.906;2023-08-24T11:39:29;22.90;99.90
52211;DHT22;38179;52.756;6.906;2023-08-24T11:42:02;22.90;99.90
52211;DHT22;38179;52.756;6.906;2023-08-24T11:44:29;22.90;99.90
52211;DHT22;38179;52.756;6.906;2023-08-24T11:46:57;22.90;99.90
52211;DHT22;38179;52.756;6.906;2023-08-24T11:49:24;22.90;99.90
52211;DHT22;38179;52.756;6.906;2023-08-24T11:51:51;22.90;99.90
52211;DHT22;38179;52.756;6.906;2023-08-24T11:54:21;22.90;99.90
52211;DHT22;38179;52.756;6.906;2023-08-24T11:56:47;23.00;99.90
52211;DHT22;38179;52.756;6.906;2023-08-24T11:59:13;23.00;99.90
52211;DHT22;38179;52.756;6.906;2023-08-24T12:01:41;23.00;99.90
52211;DHT22;38179;52.756;6.906;2023-08-24T12:04:07;23.10;99.90
52211;DHT22;38179;52.756;6.906;2023-08-24T12:06:44;23.10;99.90
52211;DHT22;38179;52.756;6.906;2023-08-24T12:09:30;23.10;99.90
52211;DHT22;38179;52.756;6.906;2023-08-24T12:11:56;23.10;99.90
52211;DHT22;38179;52.756;6.906;2023-08-24T12:14:23;23.10;99.90
52211;DHT22;38179;52.756;6.906;2023-08-24T12:16:49;23.10;99.90
52211;DHT22;38179;52.756;6.906;2023-08-24T12:19:21;23.10;99.90
52211;DHT22;38179;52.756;6.906;2023-08-24T12:21:50;23.00;99.90
52211;DHT22;38179;52.756;6.906;2023-08-24T12:24:16;23.00;99.90
52211;DHT22;38179;52.756;6.906;2023-08-24T12:26:42;23.00;99.90
52211;DHT22;38179;52.756;6.906;2023-08-24T12:29:08;23.00;99.90
52211;DHT22;38179;52.756;6.906;2023-08-24T12:31:36;23.00;99.90
52211;DHT22;38179;52.756;6.906;2023-08-24T12:34:07;23.10;99.90
52211;DHT22;38179;52.756;6.906;2023-08-24T12:36:36;23.10;99.90
52211;DHT22;38179;52.756;6.906;2023-08-24T12:39:02;23.20;99.90
52211;DHT22;38179;52.756;6.906;2023-08-24T12:41:31;23.20;99.90
52211;DHT22;38179;52.756;6.906;2023-08-24T12:43:58;23.30;99.90
52211;DHT22;38179;52.756;6.906;2023-08-24T12:46:25;23.40;99.90
52211;DHT22;38179;52.756;6.906;2023-08-24T12:48:51;23.50;99.90
52211;DHT22;38179;52.756;6.906;2023-08-24T12:51:17;23.60;99.90
52211;DHT22;38179;52.756;6.906;2023-08-24T12:53:46;23.70;99.90
52211;DHT22;38179;52.756;6.906;2023-08-24T12:56:11;23.80;99.90
52211;DHT22;38179;52.756;6.906;2023-08-24T12:58:38;23.90;99.90
52211;DHT22;38179;52.756;6.906;2023-08-24T13:01:04;23.90;99.90
52211;DHT22;38179;52.756;6.906;2023-08-24T13:03:29;24.00;99.90
52211;DHT22;38179;52.756;6.906;2023-08-24T13:05:57;24.00;99.90
52211;DHT22;38179;52.756;6.906;2023-08-24T13:08:23;24.00;99.90
52211;DHT22;38179;52.756;6.906;2023-08-24T13:10:49;24.00;99.90
52211;DHT22;38179;52.756;6.906;2023-08-24T13:13:16;24.10;99.90
52211;DHT22;38179;52.756;6.906;2023-08-24T13:15:42;24.10;99.90
52211;DHT22;38179;52.756;6.906;2023-08-24T13:18:08;24.10;99.90
52211;DHT22;38179;52.756;6.906;2023-08-24T13:20:34;24.10;99.90
52211;DHT22;38179;52.756;6.906;2023-08-24T13:23:00;24.10;99.90
52211;DHT22;38179;52.756;6.906;2023-08-24T13:25:25;24.10;99.90
52211;DHT22;38179;52.756;6.906;2023-08-24T13:27:51;24.10;99.90
52211;DHT22;38179;52.756;6.906;2023-08-24T13:30:18;24.10;99.90
52211;DHT22;38179;52.756;6.906;2023-08-24T13:32:44;24.00;99.90
52211;DHT22;38179;52.756;6.906;2023-08-24T13:35:10;24.00;99.90
52211;DHT22;38179;52.756;6.906;2023-08-24T13:37:36;24.00;99.90
52211;DHT22;38179;52.756;6.906;2023-08-24T13:40:02;24.10;99.90
52211;DHT22;38179;52.756;6.906;2023-08-24T13:42:29;24.00;99.90
52211;DHT22;38179;52.756;6.906;2023-08-24T13:44:55;24.10;99.90
52211;DHT22;38179;52.756;6.906;2023-08-24T13:47:21;24.20;99.90
52211;DHT22;38179;52.756;6.906;2023-08-24T13:49:50;24.30;99.90
52211;DHT22;38179;52.756;6.906;2023-08-24T13:52:15;24.30;99.90
52211;DHT22;38179;52.756;6.906;2023-08-24T13:54:44;24.40;99.90
52211;DHT22;38179;52.756;6.906;2023-08-24T13:57:10;24.40;99.90
52211;DHT22;38179;52.756;6.906;2023-08-24T13:59:36;24.40;99.90
52211;DHT22;38179;52.756;6.906;2023-08-24T14:02:03;24.40;99.90
52211;DHT22;38179;52.756;6.906;2023-08-24T14:04:30;24.40;99.90
52211;DHT22;38179;52.756;6.906;2023-08-24T14:06:56;24.40;99.90
52211;DHT22;38179;52.756;6.906;2023-08-24T14:09:22;24.30;99.90
52211;DHT22;38179;52.756;6.906;2023-08-24T14:11:47;24.30;99.90
52211;DHT22;38179;52.756;6.906;2023-08-24T14:14:14;24.20;99.90
52211;DHT22;38179;52.756;6.906;2023-08-24T14:16:40;24.20;99.90
52211;DHT22;38179;52.756;6.906;2023-08-24T14:19:06;24.10;99.90
52211;DHT22;38179;52.756;6.906;2023-08-24T14:21:32;24.00;99.90
52211;DHT22;38179;52.756;6.906;2023-08-24T14:23:58;24.00;99.90
52211;DHT22;38179;52.756;6.906;2023-08-24T14:26:24;23.90;99.90
52211;DHT22;38179;52.756;6.906;2023-08-24T14:28:52;23.90;99.90
52211;DHT22;38179;52.756;6.906;2023-08-24T14:31:29;23.90;99.90
52211;DHT22;38179;52.756;6.906;2023-08-24T14:33:55;23.90;99.90
52211;DHT22;38179;52.756;6.906;2023-08-24T14:36:30;23.80;99.90
52211;DHT22;38179;52.756;6.906;2023-08-24T14:38:58;23.80;99.90
52211;DHT22;38179;52.756;6.906;2023-08-24T14:41:24;23.80;99.90
52211;DHT22;38179;52.756;6.906;2023-08-24T14:43:51;23.80;99.90
52211;DHT22;38179;52.756;6.906;2023-08-24T14:46:17;23.70;99.90
52211;DHT22;38179;52.756;6.906;2023-08-24T14:48:43;23.70;99.90
52211;DHT22;38179;52.756;6.906;2023-08-24T14:51:09;23.70;99.90
52211;DHT22;38179;52.756;6.906;2023-08-24T14:53:35;23.70;99.90
52211;DHT22;38179;52.756;6.906;2023-08-24T14:56:04;23.70;99.90
52211;DHT22;38179;52.756;6.906;2023-08-24T14:58:30;23.70;99.90
52211;DHT22;38179;52.756;6.906;2023-08-24T15:00:57;23.70;99.90
52211;DHT22;38179;52.756;6.906;2023-08-24T15:03:23;23.60;99.90
52211;DHT22;38179;52.756;6.906;2023-08-24T15:05:58;23.60;99.90
52211;DHT22;38179;52.756;6.906;2023-08-24T15:08:25;23.60;99.90
52211;DHT22;38179;52.756;6.906;2023-08-24T15:10:53;23.60;99.90
52211;DHT22;38179;52.756;6.906;2023-08-24T15:13:25;23.60;99.90
52211;DHT22;38179;52.756;6.906;2023-08-24T15:15:55;23.60;99.90
52211;DHT22;38179;52.756;6.906;2023-08-24T15:18:23;23.60;99.90
52211;DHT22;38179;52.756;6.906;2023-08-24T15:20:56;23.50;99.90
52211;DHT22;38179;52.756;6.906;2023-08-24T15:23:27;23.50;99.90
52211;DHT22;38179;52.756;6.906;2023-08-24T15:26:00;23.50;99.90
52211;DHT22;38179;52.756;6.906;2023-08-24T15:28:35;23.50;99.90
52211;DHT22;38179;52.756;6.906;2023-08-24T15:31:01;23.50;99.90
52211;DHT22;38179;52.756;6.906;2023-08-24T15:33:27;23.50;99.90
52211;DHT22;38179;52.756;6.906;2023-08-24T15:35:55;23.50;99.90
52211;DHT22;38179;52.756;6.906;2023-08-24T15:38:22;23.50;99.90
52211;DHT22;38179;52.756;6.906;2023-08-24T15:40:53;23.50;99.90
52211;DHT22;38179;52.756;6.906;2023-08-24T15:43:22;23.60;99.90
52211;DHT22;38179;52.756;6.906;2023-08-24T15:45:50;23.60;99.90
52211;DHT22;38179;52.756;6.906;2023-08-24T15:48:19;23.60;99.90